createdAt,value
2022-09-24T00:01:30.092Z,54.56
2022-09-24T00:04:02.465Z,54.42
2022-09-24T00:06:31.192Z,54.24
2022-09-24T00:08:58.294Z,57.02
2022-09-24T00:11:26.820Z,56.28
2022-09-24T00:13:54.833Z,56.07
2022-09-24T00:16:23.985Z,55.81
2022-09-24T00:18:50.828Z,56.17
2022-09-24T00:21:20.419Z,55.75
2022-09-24T00:23:52.083Z,56.23
2022-09-24T00:26:38.639Z,55.07
2022-09-24T00:29:06.352Z,55.08
2022-09-24T00:31:33.247Z,55.19
2022-09-24T00:34:01.189Z,54.64
2022-09-24T00:36:28.409Z,55.37
2022-09-24T00:38:58.050Z,55.15
2022-09-24T00:41:30.724Z,55.78
2022-09-24T00:43:58.081Z,55.57
2022-09-24T00:46:43.078Z,55.52
2022-09-24T00:49:16.563Z,55.92
2022-09-24T00:51:47.121Z,55.24
2022-09-24T00:54:19.749Z,55.24
2022-09-24T00:56:49.198Z,55.51
2022-09-24T00:59:18.531Z,55.12
2022-09-24T01:01:49.635Z,56.28
2022-09-24T01:04:21.357Z,57.32
2022-09-24T01:06:52.349Z,57.46
2022-09-24T01:09:21.717Z,58.72
2022-09-24T01:12:00.667Z,59.15
2022-09-24T01:14:42.586Z,58.11
2022-09-24T01:17:21.535Z,58.16
2022-09-24T01:20:09.922Z,57.43
2022-09-24T01:22:57.607Z,56.44
2022-09-24T01:25:43.943Z,56.07
2022-09-24T01:28:13.667Z,55.98
2022-09-24T01:30:42.710Z,55.42
2022-09-24T01:33:15.167Z,56.43
2022-09-24T01:35:44.857Z,56.54
2022-09-24T01:38:22.695Z,54.99
2022-09-24T01:40:52.081Z,54.91
2022-09-24T01:43:22.985Z,55.83
2022-09-24T01:45:49.993Z,56.74
2022-09-24T01:48:21.305Z,57.95
2022-09-24T01:51:03.387Z,57.02
2022-09-24T01:53:35.949Z,56.88
2022-09-24T01:56:08.350Z,57.71
2022-09-24T01:58:50.181Z,57.21
2022-09-24T02:01:27.873Z,57.38
2022-09-24T02:04:06.432Z,58.09
2022-09-24T02:06:44.407Z,57.66
2022-09-24T02:09:40.204Z,56.33
2022-09-24T02:12:23.061Z,56.66
2022-09-24T02:15:01.399Z,58.44
2022-09-24T02:17:33.588Z,58.47
2022-09-24T02:20:02.860Z,58.93
2022-09-24T02:22:31.284Z,59.73
2022-09-24T02:25:00.127Z,59.73
2022-09-24T02:27:30.636Z,59.13
2022-09-24T02:29:59.297Z,58.38
2022-09-24T02:32:30.014Z,58.30
2022-09-24T02:35:02.099Z,58.48
2022-09-24T02:37:29.870Z,57.56
2022-09-24T02:39:56.614Z,57.14
2022-09-24T02:42:23.578Z,58.10
2022-09-24T02:44:50.407Z,57.54
2022-09-24T02:47:17.108Z,57.01
2022-09-24T02:49:43.774Z,57.16
2022-09-24T02:52:10.569Z,57.88
2022-09-24T02:54:38.062Z,57.51
2022-09-24T02:57:04.892Z,57.47
2022-09-24T02:59:31.766Z,56.98
2022-09-24T03:01:58.600Z,57.04
2022-09-24T03:04:25.537Z,56.05
2022-09-24T03:06:52.463Z,56.79
2022-09-24T03:09:19.181Z,56.10
2022-09-24T03:11:46.617Z,56.56
2022-09-24T03:14:13.659Z,57.59
2022-09-24T03:16:40.515Z,56.45
2022-09-24T03:19:07.877Z,56.19
2022-09-24T03:21:34.672Z,57.50
2022-09-24T03:24:01.642Z,57.14
2022-09-24T03:26:28.496Z,59.75
2022-09-24T03:28:55.214Z,58.95
2022-09-24T03:31:24.408Z,58.71
2022-09-24T03:33:52.003Z,57.77
2022-09-24T03:36:24.525Z,57.64
2022-09-24T03:38:56.532Z,56.80
2022-09-24T03:41:27.804Z,57.51
2022-09-24T03:43:55.413Z,58.05
2022-09-24T03:46:24.478Z,58.53
2022-09-24T03:48:51.213Z,57.77
2022-09-24T03:51:19.711Z,57.18
2022-09-24T03:53:46.998Z,57.77
2022-09-24T03:56:13.825Z,58.67
2022-09-24T03:58:42.054Z,59.09
2022-09-24T04:01:10.810Z,58.79
2022-09-24T04:03:37.869Z,59.01
2022-09-24T04:06:05.546Z,60.81
2022-09-24T04:08:33.093Z,60.12
2022-09-24T04:11:00.134Z,60.16
2022-09-24T04:13:26.909Z,61.34
2022-09-24T04:15:55.183Z,60.71
2022-09-24T04:18:22.805Z,60.88
2022-09-24T04:20:49.783Z,61.50
2022-09-24T04:23:16.717Z,61.61
2022-09-24T04:25:44.211Z,60.54
2022-09-24T04:28:12.133Z,61.28
2022-09-24T04:30:39.430Z,62.26
2022-09-24T04:33:07.510Z,61.14
2022-09-24T04:35:36.303Z,60.88
2022-09-24T04:38:04.914Z,61.95
2022-09-24T04:40:32.455Z,62.57
2022-09-24T04:42:59.704Z,62.25
2022-09-24T04:45:26.995Z,61.58
2022-09-24T04:47:57.618Z,61.52
2022-09-24T04:50:27.447Z,61.49
2022-09-24T04:52:55.110Z,62.12
2022-09-24T04:55:22.707Z,61.97
2022-09-24T04:57:51.286Z,63.35
2022-09-24T05:00:21.117Z,63.50
2022-09-24T05:02:55.257Z,63.11
2022-09-24T05:05:22.092Z,64.48
2022-09-24T05:07:49.629Z,64.27
2022-09-24T05:10:16.425Z,62.63
2022-09-24T05:12:43.157Z,60.12
2022-09-24T05:15:10.426Z,57.51
2022-09-24T05:17:40.731Z,55.80
2022-09-24T05:20:11.449Z,52.64
2022-09-24T05:22:46.302Z,49.68
2022-09-24T05:25:15.168Z,48.55
2022-09-24T05:27:50.261Z,45.56
2022-09-24T05:30:18.945Z,43.99
2022-09-24T05:32:47.360Z,41.94
2022-09-24T05:35:14.059Z,40.50
2022-09-24T05:37:41.269Z,40.42
2022-09-24T05:40:27.149Z,40.71
2022-09-24T05:43:00.994Z,40.32
2022-09-24T05:45:31.721Z,41.66
2022-09-24T05:48:00.241Z,41.67
2022-09-24T05:50:27.635Z,42.18
2022-09-24T05:52:54.554Z,45.46
2022-09-24T05:55:21.252Z,46.68
2022-09-24T05:57:49.130Z,47.37
2022-09-24T06:00:16.018Z,46.13
2022-09-24T06:02:42.782Z,46.36
2022-09-24T06:05:10.308Z,45.41
2022-09-24T06:07:37.141Z,45.59
2022-09-24T06:10:05.492Z,47.52
2022-09-24T06:12:35.088Z,45.64
2022-09-24T06:15:02.946Z,46.55
2022-09-24T06:17:30.006Z,47.77
2022-09-24T06:19:58.134Z,47.38
2022-09-24T06:22:28.336Z,48.68
2022-09-24T06:24:55.724Z,49.41
2022-09-24T06:27:22.454Z,50.74
2022-09-24T06:29:49.270Z,50.37
2022-09-24T06:32:16.134Z,51.51
2022-09-24T06:34:43.092Z,52.89
2022-09-24T06:37:09.972Z,53.63
2022-09-24T06:39:36.660Z,53.61
2022-09-24T06:42:03.387Z,52.94
2022-09-24T06:44:31.813Z,53.75
2022-09-24T06:46:58.656Z,53.75
2022-09-24T06:49:29.012Z,56.13
2022-09-24T06:51:58.984Z,56.84
2022-09-24T06:54:25.887Z,56.77
2022-09-24T06:56:52.845Z,57.37
2022-09-24T06:59:19.775Z,55.72
2022-09-24T07:01:46.464Z,55.76
2022-09-24T07:04:13.388Z,56.53
2022-09-24T07:06:58.867Z,56.48
2022-09-24T07:09:25.563Z,56.31
2022-09-24T07:11:53.162Z,55.74
2022-09-24T07:14:20.212Z,55.76
2022-09-24T07:16:47.837Z,54.42
2022-09-24T07:19:14.520Z,54.99
2022-09-24T07:21:41.213Z,55.68
2022-09-24T07:24:07.975Z,54.18
2022-09-24T07:26:34.748Z,54.72
2022-09-24T07:29:02.288Z,52.84
2022-09-24T07:31:30.073Z,54.44
2022-09-24T07:33:56.870Z,52.05
2022-09-24T07:36:23.724Z,52.04
2022-09-24T07:38:50.467Z,51.29
2022-09-24T07:41:18.324Z,53.05
2022-09-24T07:43:45.056Z,50.72
2022-09-24T07:46:11.779Z,49.83
2022-09-24T07:48:38.510Z,49.27
2022-09-24T07:51:06.521Z,49.18
2022-09-24T07:53:33.740Z,49.64
2022-09-24T07:56:00.777Z,49.83
2022-09-24T07:58:27.600Z,52.18
2022-09-24T08:00:57.942Z,49.36
2022-09-24T08:03:24.745Z,50.85
2022-09-24T08:05:52.255Z,50.58
2022-09-24T08:08:20.978Z,53.35
2022-09-24T08:10:47.695Z,52.27
2022-09-24T08:13:14.888Z,52.72
2022-09-24T08:15:41.973Z,49.80
2022-09-24T08:18:08.765Z,46.81
2022-09-24T08:20:38.042Z,43.92
2022-09-24T08:23:07.774Z,41.65
2022-09-24T08:25:34.340Z,40.28
2022-09-24T08:28:08.849Z,41.88
2022-09-24T08:30:36.173Z,41.22
2022-09-24T08:33:06.900Z,40.12
2022-09-24T08:35:37.142Z,40.19
2022-09-24T08:38:04.008Z,39.65
2022-09-24T08:40:36.487Z,39.74
2022-09-24T08:43:21.770Z,42.13
2022-09-24T08:46:14.261Z,43.01
2022-09-24T08:48:46.454Z,40.91
2022-09-24T08:51:18.285Z,41.86
2022-09-24T08:53:57.771Z,41.33
2022-09-24T08:56:35.380Z,40.84
2022-09-24T08:59:02.339Z,38.81
2022-09-24T09:01:35.213Z,40.48
2022-09-24T09:04:26.101Z,43.36
2022-09-24T09:07:02.250Z,41.54
2022-09-24T09:09:46.420Z,43.72
2022-09-24T09:12:23.604Z,40.51
2022-09-24T09:15:06.134Z,38.65
2022-09-24T09:17:42.493Z,38.99
2022-09-24T09:20:40.786Z,37.75
2022-09-24T09:23:16.987Z,35.62
2022-09-24T09:25:57.961Z,35.85
2022-09-24T09:28:26.886Z,35.47
2022-09-24T09:30:56.931Z,34.29
2022-09-24T09:34:09.364Z,34.15
2022-09-24T09:37:03.253Z,33.02
2022-09-24T09:39:55.017Z,33.33
2022-09-24T09:42:42.945Z,32.81
2022-09-24T09:45:25.481Z,32.11
2022-09-24T09:47:57.639Z,33.58
2022-09-24T09:50:42.941Z,32.62
2022-09-24T09:53:31.621Z,33.46
2022-09-24T09:56:04.812Z,33.14
2022-09-24T09:58:33.952Z,32.84
2022-09-24T10:01:08.016Z,34.11
2022-09-24T10:03:52.283Z,34.10
2022-09-24T10:06:28.033Z,34.16
2022-09-24T10:09:05.954Z,34.36
2022-09-24T10:11:32.970Z,33.53
2022-09-24T10:14:04.707Z,37.45
2022-09-24T10:16:38.181Z,34.71
2022-09-24T10:19:16.447Z,33.61
2022-09-24T10:21:43.347Z,34.40
2022-09-24T10:24:23.724Z,36.29
2022-09-24T10:26:50.915Z,33.90
2022-09-24T10:29:40.492Z,36.58
2022-09-24T10:32:16.152Z,37.50
2022-09-24T10:34:43.057Z,35.16
2022-09-24T10:37:19.117Z,36.49
2022-09-24T10:39:45.859Z,36.93
2022-09-24T10:42:27.307Z,33.59
2022-09-24T10:44:55.748Z,32.42
2022-09-24T10:47:53.224Z,33.65
2022-09-24T10:50:20.090Z,34.20
2022-09-24T10:53:39.650Z,34.57
2022-09-24T10:56:22.966Z,34.28
2022-09-24T10:59:14.018Z,32.82
2022-09-24T11:01:52.331Z,33.69
2022-09-24T11:04:41.041Z,32.37
2022-09-24T11:07:42.030Z,32.02
2022-09-24T11:10:30.945Z,32.42
2022-09-24T11:13:07.476Z,33.10
2022-09-24T11:16:04.633Z,32.21
2022-09-24T11:18:32.181Z,32.92
2022-09-24T11:21:31.501Z,32.43
2022-09-24T11:24:19.906Z,33.06
2022-09-24T11:27:08.200Z,32.87
2022-09-24T11:29:48.682Z,32.79
2022-09-24T11:32:24.130Z,33.51
2022-09-24T11:34:51.659Z,33.13
2022-09-24T11:37:46.282Z,33.69
2022-09-24T11:40:31.652Z,34.13
2022-09-24T11:43:26.603Z,34.09
2022-09-24T11:46:33.379Z,33.37
2022-09-24T11:49:57.201Z,33.15
2022-09-24T11:52:43.795Z,32.75
2022-09-24T11:55:14.789Z,32.36
2022-09-24T11:58:04.532Z,31.97
2022-09-24T12:00:40.703Z,31.83
2022-09-24T12:03:25.198Z,31.10
2022-09-24T12:06:21.994Z,31.17
2022-09-24T12:08:56.179Z,31.11
2022-09-24T12:11:34.193Z,30.84
2022-09-24T12:14:13.300Z,31.63
2022-09-24T12:16:44.492Z,30.90
2022-09-24T12:19:14.215Z,31.39
2022-09-24T12:21:43.602Z,31.93
2022-09-24T12:24:19.359Z,31.91
2022-09-24T12:26:47.952Z,31.88
2022-09-24T12:29:59.619Z,32.32
2022-09-24T12:32:54.976Z,32.26
2022-09-24T12:35:58.254Z,32.16
2022-09-24T12:38:42.723Z,33.20
2022-09-24T12:41:21.348Z,33.17
2022-09-24T12:43:54.572Z,33.32
2022-09-24T12:46:47.348Z,32.98
2022-09-24T12:49:35.963Z,32.88
2022-09-24T12:52:32.515Z,33.65
2022-09-24T12:55:02.422Z,32.33
2022-09-24T12:57:49.375Z,33.14
2022-09-24T13:00:36.519Z,32.72
2022-09-24T13:03:05.793Z,31.53
2022-09-24T13:05:46.440Z,32.24
2022-09-24T13:08:22.998Z,31.96
2022-09-24T13:11:00.983Z,31.74
2022-09-24T13:13:31.941Z,32.43
2022-09-24T13:16:06.428Z,32.49
2022-09-24T13:18:36.991Z,32.07
2022-09-24T13:21:09.097Z,31.63
2022-09-24T13:23:35.708Z,31.56
2022-09-24T13:26:06.421Z,31.44
2022-09-24T13:28:48.661Z,31.15
2022-09-24T13:31:35.405Z,30.86
2022-09-24T13:34:13.024Z,30.63
2022-09-24T13:36:46.372Z,31.29
2022-09-24T13:39:42.583Z,33.46
2022-09-24T13:42:25.388Z,32.47
2022-09-24T13:44:58.433Z,32.47
2022-09-24T13:47:28.781Z,31.84
2022-09-24T13:50:25.794Z,32.03
2022-09-24T13:53:18.696Z,31.33
2022-09-24T13:55:46.923Z,32.35
2022-09-24T13:58:29.685Z,33.50
2022-09-24T14:00:59.975Z,32.64
2022-09-24T14:03:37.412Z,33.63
2022-09-24T14:06:12.675Z,33.12
2022-09-24T14:08:47.198Z,33.70
2022-09-24T14:11:16.024Z,34.14
2022-09-24T14:13:46.176Z,33.94
2022-09-24T14:16:21.230Z,33.21
2022-09-24T14:18:48.939Z,33.94
2022-09-24T14:21:27.926Z,33.59
2022-09-24T14:23:54.606Z,33.48
2022-09-24T14:26:30.135Z,34.01
2022-09-24T14:29:00.165Z,34.16
2022-09-24T14:31:28.110Z,34.13
2022-09-24T14:33:55.254Z,33.88
2022-09-24T14:36:28.248Z,33.25
2022-09-24T14:39:04.457Z,33.69
2022-09-24T14:41:36.491Z,32.82
2022-09-24T14:44:08.125Z,34.04
2022-09-24T14:46:46.017Z,35.69
2022-09-24T14:49:42.214Z,35.12
2022-09-24T14:52:25.268Z,35.81
2022-09-24T14:55:12.512Z,35.83
2022-09-24T14:57:43.353Z,36.11
2022-09-24T15:00:19.232Z,37.37
2022-09-24T15:02:51.173Z,36.73
2022-09-24T15:05:23.271Z,39.13
2022-09-24T15:07:50.129Z,39.53
2022-09-24T15:10:23.037Z,38.71
2022-09-24T15:12:50.862Z,39.21
2022-09-24T15:15:17.506Z,39.27
2022-09-24T15:17:47.320Z,40.57
2022-09-24T15:20:14.960Z,40.33
2022-09-24T15:22:41.731Z,42.01
2022-09-24T15:25:08.986Z,40.20
2022-09-24T15:27:40.512Z,40.25
2022-09-24T15:30:11.356Z,40.46
2022-09-24T15:32:38.897Z,42.07
2022-09-24T15:35:09.747Z,42.21
2022-09-24T15:37:39.946Z,42.45
2022-09-24T15:40:14.286Z,42.59
2022-09-24T15:42:41.077Z,43.05
2022-09-24T15:45:21.726Z,42.90
2022-09-24T15:47:50.209Z,42.36
2022-09-24T15:50:18.073Z,44.74
2022-09-24T15:52:50.551Z,44.09
2022-09-24T15:55:20.151Z,42.96
2022-09-24T15:57:47.147Z,42.72
2022-09-24T16:00:18.947Z,42.77
2022-09-24T16:02:52.364Z,42.74
2022-09-24T16:05:19.779Z,43.75
2022-09-24T16:07:46.969Z,42.93
2022-09-24T16:10:15.754Z,43.07
2022-09-24T16:12:43.289Z,42.94
2022-09-24T16:15:14.858Z,43.33
2022-09-24T16:17:42.302Z,43.11
2022-09-24T16:20:12.317Z,43.93
2022-09-24T16:22:39.167Z,43.15
2022-09-24T16:25:07.239Z,43.39
2022-09-24T16:27:35.444Z,43.36
2022-09-24T16:30:02.854Z,43.13
2022-09-24T16:32:29.605Z,43.28
2022-09-24T16:34:57.094Z,44.11
2022-09-24T16:37:25.318Z,45.33
2022-09-24T16:39:55.465Z,45.18
2022-09-24T16:42:22.305Z,46.34
2022-09-24T16:44:49.009Z,46.36
2022-09-24T16:47:17.836Z,46.11
2022-09-24T16:49:44.683Z,45.58
2022-09-24T16:52:11.643Z,46.37
2022-09-24T16:54:38.416Z,46.83
2022-09-24T16:57:06.402Z,46.52
2022-09-24T16:59:33.456Z,46.74
2022-09-24T17:02:00.378Z,46.47
2022-09-24T17:04:27.793Z,46.81
2022-09-24T17:06:58.536Z,46.24
2022-09-24T17:09:44.034Z,46.32
2022-09-24T17:12:11.170Z,46.92
2022-09-24T17:14:38.641Z,46.11
2022-09-24T17:17:05.953Z,45.86
2022-09-24T17:19:32.785Z,47.15
2022-09-24T17:22:00.889Z,47.96
2022-09-24T17:24:27.865Z,47.42
2022-09-24T17:26:55.243Z,47.17
2022-09-24T17:29:27.571Z,47.79
2022-09-24T17:31:57.339Z,47.32
2022-09-24T17:34:24.281Z,48.03
2022-09-24T17:36:51.115Z,47.58
2022-09-24T17:39:18.770Z,47.69
2022-09-24T17:41:45.769Z,47.84
2022-09-24T17:44:13.228Z,47.95
2022-09-24T17:46:40.581Z,48.49
2022-09-24T17:49:07.561Z,48.38
2022-09-24T17:51:36.616Z,49.07
2022-09-24T17:54:08.511Z,48.86
2022-09-24T17:56:39.091Z,48.24
2022-09-24T17:59:08.978Z,49.28
2022-09-24T18:01:38.332Z,49.93
2022-09-24T18:04:07.188Z,49.87
2022-09-24T18:06:37.347Z,50.11
2022-09-24T18:09:05.549Z,50.18
2022-09-24T18:11:38.515Z,50.08
2022-09-24T18:14:05.618Z,50.33
2022-09-24T18:16:33.711Z,50.93
2022-09-24T18:19:02.295Z,50.30
2022-09-24T18:21:30.164Z,50.31
2022-09-24T18:23:58.997Z,51.30
2022-09-24T18:26:32.924Z,50.82
2022-09-24T18:29:02.513Z,52.39
2022-09-24T18:31:29.865Z,52.18
2022-09-24T18:34:05.284Z,50.69
2022-09-24T18:36:34.935Z,50.99
2022-09-24T18:39:02.429Z,51.13
2022-09-24T18:41:30.968Z,52.38
2022-09-24T18:44:01.636Z,52.61
2022-09-24T18:46:30.925Z,55.53
2022-09-24T18:49:01.716Z,53.75
2022-09-24T18:51:32.026Z,54.61
2022-09-24T18:54:03.489Z,54.29
2022-09-24T18:56:31.506Z,54.25
2022-09-24T18:59:02.084Z,54.49
2022-09-24T19:01:32.150Z,52.81
2022-09-24T19:04:00.670Z,53.75
2022-09-24T19:06:28.441Z,52.35
2022-09-24T19:08:55.518Z,53.72
2022-09-24T19:11:22.994Z,53.28
2022-09-24T19:13:51.992Z,53.05
2022-09-24T19:16:20.321Z,52.34
2022-09-24T19:18:47.569Z,52.97
2022-09-24T19:21:15.751Z,52.25
2022-09-24T19:23:46.529Z,51.68
2022-09-24T19:26:16.371Z,51.81
2022-09-24T19:28:44.150Z,51.62
2022-09-24T19:31:22.187Z,54.20
2022-09-24T19:33:50.463Z,52.47
2022-09-24T19:36:17.687Z,52.72
2022-09-24T19:38:44.978Z,53.83
2022-09-24T19:41:25.450Z,55.43
2022-09-24T19:43:53.947Z,54.84
2022-09-24T19:46:24.405Z,54.96
2022-09-24T19:48:52.327Z,57.74
2022-09-24T19:51:23.611Z,57.61
2022-09-24T19:53:53.563Z,57.77
2022-09-24T19:56:22.732Z,58.92
2022-09-24T19:58:52.848Z,56.56
2022-09-24T20:01:21.655Z,57.29
2022-09-24T20:03:49.255Z,57.55
2022-09-24T20:06:19.008Z,58.41
2022-09-24T20:08:49.275Z,57.15
2022-09-24T20:11:19.500Z,56.07
2022-09-24T20:13:47.171Z,56.26
2022-09-24T20:16:16.550Z,56.39
2022-09-24T20:18:43.786Z,58.88
2022-09-24T20:21:12.849Z,59.64
2022-09-24T20:23:40.958Z,58.05
2022-09-24T20:26:26.276Z,59.50
2022-09-24T20:28:53.188Z,59.76
2022-09-24T20:31:21.169Z,61.28
2022-09-24T20:33:49.031Z,60.89
2022-09-24T20:36:20.756Z,60.36
2022-09-24T20:38:50.091Z,59.52
2022-09-24T20:41:25.012Z,58.60
2022-09-24T20:43:55.309Z,58.08
2022-09-24T20:46:24.841Z,57.67
2022-09-24T20:48:52.646Z,58.67
2022-09-24T20:51:21.387Z,58.01
2022-09-24T20:53:49.607Z,57.66
2022-09-24T20:56:18.277Z,57.67
2022-09-24T20:58:45.516Z,56.98
2022-09-24T21:01:12.707Z,57.38
2022-09-24T21:03:44.851Z,57.48
2022-09-24T21:06:13.204Z,57.29
2022-09-24T21:08:42.753Z,57.78
2022-09-24T21:11:16.268Z,57.69
2022-09-24T21:13:45.830Z,58.66
2022-09-24T21:16:12.984Z,57.84
2022-09-24T21:18:42.815Z,58.28
2022-09-24T21:21:12.467Z,59.61
2022-09-24T21:23:40.152Z,59.25
2022-09-24T21:26:10.910Z,61.01
2022-09-24T21:28:37.890Z,61.41
2022-09-24T21:31:05.840Z,61.17
2022-09-24T21:33:33.805Z,60.29
2022-09-24T21:36:05.799Z,59.85
2022-09-24T21:38:32.874Z,60.57
2022-09-24T21:41:01.456Z,61.74
2022-09-24T21:43:33.824Z,62.04
2022-09-24T21:46:06.753Z,61.64
2022-09-24T21:48:34.429Z,61.85
2022-09-24T21:51:06.323Z,61.92
2022-09-24T21:53:34.442Z,62.31
2022-09-24T21:56:02.641Z,62.29
2022-09-24T21:58:30.061Z,61.53
2022-09-24T22:01:04.276Z,62.54
2022-09-24T22:03:32.194Z,61.58
2022-09-24T22:06:03.451Z,62.03
2022-09-24T22:08:32.039Z,62.32
2022-09-24T22:11:05.156Z,63.12
2022-09-24T22:13:32.440Z,61.16
2022-09-24T22:16:00.338Z,64.98
2022-09-24T22:18:28.176Z,63.27
2022-09-24T22:20:56.410Z,64.13
2022-09-24T22:23:23.809Z,65.30
2022-09-24T22:25:55.944Z,63.25
2022-09-24T22:28:24.649Z,66.52
2022-09-24T22:30:56.300Z,64.65
2022-09-24T22:33:42.674Z,62.36
2022-09-24T22:36:09.688Z,62.83
2022-09-24T22:38:37.233Z,64.75
2022-09-24T22:41:05.914Z,63.52
2022-09-24T22:43:33.210Z,66.80
2022-09-24T22:46:01.138Z,67.54
2022-09-24T22:48:28.199Z,65.46
2022-09-24T22:50:55.022Z,67.66
2022-09-24T22:53:22.405Z,68.71
2022-09-24T22:55:52.670Z,67.55
2022-09-24T22:58:19.473Z,67.75
2022-09-24T23:00:46.345Z,66.09
2022-09-24T23:03:13.079Z,68.63
2022-09-24T23:05:39.795Z,67.34
2022-09-24T23:08:06.580Z,64.39
2022-09-24T23:10:33.827Z,65.55
2022-09-24T23:13:00.573Z,63.74
2022-09-24T23:15:27.341Z,64.57
2022-09-24T23:17:55.085Z,65.13
2022-09-24T23:20:22.790Z,65.06
2022-09-24T23:22:49.803Z,66.11
2022-09-24T23:25:16.704Z,64.42
2022-09-24T23:27:43.420Z,65.65
2022-09-24T23:30:10.738Z,67.35
2022-09-24T23:32:37.438Z,65.34
2022-09-24T23:35:04.431Z,65.55
2022-09-24T23:37:31.317Z,66.25
2022-09-24T23:39:58.320Z,66.41
2022-09-24T23:42:25.044Z,64.79
2022-09-24T23:44:51.790Z,64.06
2022-09-24T23:47:18.710Z,65.15
2022-09-24T23:49:45.371Z,67.30
2022-09-24T23:52:12.164Z,65.71
2022-09-24T23:54:40.336Z,64.88
2022-09-24T23:57:07.616Z,65.75
2022-09-24T23:59:34.722Z,66.79
